createdAt,value
2017-11-23T19:00:35.822Z,55.64
2017-11-23T19:03:03.708Z,55.40
2017-11-23T19:05:31.981Z,55.38
2017-11-23T19:07:59.613Z,55.92
2017-11-23T19:10:27.437Z,56.17
2017-11-23T19:12:56.085Z,56.42
2017-11-23T19:15:23.664Z,56.18
2017-11-23T19:17:51.401Z,56.29
2017-11-23T19:20:19.879Z,56.27
2017-11-23T19:22:47.937Z,56.05
2017-11-23T19:25:17.819Z,56.24
2017-11-23T19:27:47.418Z,56.34
2017-11-23T19:30:22.385Z,56.70
2017-11-23T19:32:50.125Z,57.41
2017-11-23T19:35:22.622Z,57.36
2017-11-23T19:37:51.205Z,57.77
2017-11-23T19:40:19.518Z,57.62
2017-11-23T19:42:47.533Z,57.44
2017-11-23T19:45:15.197Z,57.07
2017-11-23T19:47:42.834Z,57.76
2017-11-23T19:50:10.504Z,58.06
2017-11-23T19:52:38.260Z,58.04
2017-11-23T19:55:06.270Z,58.41
2017-11-23T19:57:33.922Z,58.40
2017-11-23T20:00:01.590Z,58.92
2017-11-23T20:02:29.277Z,58.54
2017-11-23T20:04:56.893Z,59.55
2017-11-23T20:07:24.607Z,60.60
2017-11-23T20:12:26.002Z,60.04
2017-11-23T20:14:53.542Z,62.06
2017-11-23T20:17:21.149Z,61.78
2017-11-23T20:19:48.776Z,60.51
2017-11-23T20:22:16.441Z,59.94
2017-11-23T20:24:44.116Z,59.32
2017-11-23T20:27:11.787Z,59.55
2017-11-23T20:29:39.343Z,60.55
2017-11-23T20:32:08.982Z,60.46
2017-11-23T20:34:36.640Z,60.75
2017-11-23T20:37:04.260Z,59.90
2017-11-23T20:39:31.887Z,59.84
2017-11-23T20:41:59.488Z,59.79
2017-11-23T20:44:27.233Z,59.71
2017-11-23T20:46:55.050Z,60.22
2017-11-23T20:49:24.401Z,61.44
2017-11-23T20:51:52.157Z,61.07
2017-11-23T20:54:19.859Z,60.32
2017-11-23T20:56:47.513Z,59.74
2017-11-23T20:59:15.472Z,59.77
2017-11-23T21:01:44.346Z,59.49
2017-11-23T21:04:12.095Z,59.74
2017-11-23T21:06:39.917Z,59.83
2017-11-23T21:09:07.595Z,60.34
2017-11-23T21:11:35.765Z,60.82
2017-11-23T21:16:53.989Z,60.73
2017-11-23T21:19:23.292Z,61.14
2017-11-23T21:21:51.620Z,61.72
2017-11-23T21:24:19.458Z,61.07
2017-11-23T21:26:47.637Z,60.99
2017-11-23T21:29:15.522Z,61.88
2017-11-23T21:31:43.655Z,61.88
2017-11-23T21:34:12.263Z,61.49
2017-11-23T21:36:40.197Z,61.96
2017-11-23T21:39:07.930Z,61.94
2017-11-23T21:41:35.868Z,62.76
2017-11-23T21:44:03.704Z,62.51
2017-11-23T21:46:31.640Z,63.07
2017-11-23T21:49:00.355Z,63.42
2017-11-23T21:51:28.629Z,63.79
2017-11-23T21:53:56.476Z,63.67
2017-11-23T21:56:24.188Z,62.97
2017-11-23T21:58:52.183Z,62.82
2017-11-23T22:01:23.884Z,63.67
2017-11-23T22:03:52.598Z,63.76
2017-11-23T22:06:23.156Z,62.92
2017-11-23T22:08:51.014Z,63.23
2017-11-23T22:11:19.118Z,63.14
2017-11-23T22:13:47.612Z,62.96
2017-11-23T22:16:15.463Z,63.26
2017-11-23T22:18:43.827Z,63.84
2017-11-23T22:21:11.573Z,65.15
2017-11-23T22:23:39.458Z,64.35
2017-11-23T22:26:07.123Z,63.39
2017-11-23T22:28:35.016Z,63.59
2017-11-23T22:31:04.082Z,63.08
2017-11-23T22:33:32.918Z,62.82
2017-11-23T22:36:00.675Z,62.53
2017-11-23T22:38:29.334Z,62.35
2017-11-23T22:40:57.116Z,63.15
2017-11-23T22:43:24.986Z,63.96
2017-11-23T22:45:52.866Z,64.37
2017-11-23T22:48:20.885Z,63.51
2017-11-23T22:50:50.619Z,63.46
2017-11-23T22:53:19.075Z,64.42
2017-11-23T22:55:48.782Z,64.14
2017-11-23T22:58:17.270Z,64.34
2017-11-23T23:00:48.176Z,63.85
2017-11-23T23:06:06.749Z,63.79
2017-11-23T23:08:36.641Z,64.93
2017-11-23T23:11:05.221Z,64.00
2017-11-23T23:13:33.255Z,66.00
2017-11-23T23:16:00.949Z,66.45
2017-11-23T23:18:28.652Z,67.65
2017-11-23T23:20:56.256Z,66.77
2017-11-23T23:23:25.818Z,65.64
2017-11-23T23:25:53.602Z,64.44
2017-11-23T23:28:21.804Z,65.37
2017-11-23T23:30:50.936Z,65.52
2017-11-23T23:33:18.818Z,65.29
2017-11-23T23:35:46.951Z,64.68
2017-11-23T23:38:14.672Z,66.11
2017-11-23T23:40:42.248Z,64.67
2017-11-23T23:43:09.897Z,64.35
2017-11-23T23:45:45.403Z,63.93
2017-11-23T23:48:15.570Z,64.66
2017-11-23T23:50:44.408Z,64.27
2017-11-23T23:53:14.924Z,63.79
2017-11-23T23:55:43.946Z,64.00
2017-11-23T23:58:11.899Z,64.48
